sensor_id;sensor_type;location;lat;lon;timestamp;pressure;altitude;pressure_sealevel;temperature;humidity
63399;BME280;49533;-34.520;150.798;2023-05-02T00:01:56;100476.41;;;19.54;46.42
63399;BME280;49533;-34.520;150.798;2023-05-02T00:04:23;100467.75;;;19.55;46.38
63399;BME280;49533;-34.520;150.798;2023-05-02T00:06:52;100434.00;;;19.36;46.46
63399;BME280;49533;-34.520;150.798;2023-05-02T00:09:20;100435.63;;;19.40;46.54
63399;BME280;49533;-34.520;150.798;2023-05-02T00:11:47;100442.88;;;19.48;46.20
63399;BME280;49533;-34.520;150.798;2023-05-02T00:14:14;100475.97;;;19.75;46.12
63399;BME280;49533;-34.520;150.798;2023-05-02T00:16:41;100466.59;;;19.80;45.93
63399;BME280;49533;-34.520;150.798;2023-05-02T00:19:08;100432.81;;;19.60;45.97
63399;BME280;49533;-34.520;150.798;2023-05-02T00:21:35;100437.56;;;19.63;45.75
63399;BME280;49533;-34.520;150.798;2023-05-02T00:24:03;100402.34;;;19.49;45.85
63399;BME280;49533;-34.520;150.798;2023-05-02T00:26:31;100430.31;;;19.74;45.66
63399;BME280;49533;-34.520;150.798;2023-05-02T00:28:58;100397.59;;;19.49;45.84
63399;BME280;49533;-34.520;150.798;2023-05-02T00:31:26;100463.00;;;20.02;45.77
63399;BME280;49533;-34.520;150.798;2023-05-02T00:33:54;100459.50;;;20.05;45.52
63399;BME280;49533;-34.520;150.798;2023-05-02T00:36:22;100415.13;;;19.87;45.10
63399;BME280;49533;-34.520;150.798;2023-05-02T00:38:49;100447.75;;;20.12;45.25
63399;BME280;49533;-34.520;150.798;2023-05-02T00:41:16;100440.69;;;20.14;44.89
63399;BME280;49533;-34.520;150.798;2023-05-02T00:43:44;100400.47;;;19.83;45.15
63399;BME280;49533;-34.520;150.798;2023-05-02T00:46:11;100390.75;;;19.89;45.31
63399;BME280;49533;-34.520;150.798;2023-05-02T00:48:39;100422.19;;;20.15;45.23
63399;BME280;49533;-34.520;150.798;2023-05-02T00:51:06;100426.09;;;20.14;45.17
63399;BME280;49533;-34.520;150.798;2023-05-02T00:53:37;100410.31;;;20.11;44.69
63399;BME280;49533;-34.520;150.798;2023-05-02T00:56:05;100400.81;;;20.08;44.61
63399;BME280;49533;-34.520;150.798;2023-05-02T01:01:15;100423.78;;;20.16;44.52
63399;BME280;49533;-34.520;150.798;2023-05-02T01:04:13;100442.19;;;20.38;45.01
63399;BME280;49533;-34.520;150.798;2023-05-02T01:06:58;100443.00;;;20.42;45.04
63399;BME280;49533;-34.520;150.798;2023-05-02T01:12:27;100438.34;;;20.47;44.70
63399;BME280;49533;-34.520;150.798;2023-05-02T01:14:58;100439.91;;;20.48;44.80
63399;BME280;49533;-34.520;150.798;2023-05-02T01:17:30;100410.91;;;20.27;44.84
63399;BME280;49533;-34.520;150.798;2023-05-02T01:20:02;100423.41;;;20.51;44.56
63399;BME280;49533;-34.520;150.798;2023-05-02T01:22:31;100359.41;;;20.05;44.98
63399;BME280;49533;-34.520;150.798;2023-05-02T01:25:13;100386.50;;;20.29;45.15
63399;BME280;49533;-34.520;150.798;2023-05-02T01:30:49;100370.28;;;20.24;44.87
63399;BME280;49533;-34.520;150.798;2023-05-02T01:33:18;100425.91;;;20.60;45.00
63399;BME280;49533;-34.520;150.798;2023-05-02T01:35:49;100428.28;;;20.61;44.89
63399;BME280;49533;-34.520;150.798;2023-05-02T01:38:18;100410.13;;;20.60;44.96
63399;BME280;49533;-34.520;150.798;2023-05-02T01:40:47;100365.69;;;20.35;44.93
63399;BME280;49533;-34.520;150.798;2023-05-02T01:43:18;100391.00;;;20.45;44.70
63399;BME280;49533;-34.520;150.798;2023-05-02T01:45:48;100373.66;;;20.44;45.10
63399;BME280;49533;-34.520;150.798;2023-05-02T01:48:17;100385.53;;;20.48;44.72
63399;BME280;49533;-34.520;150.798;2023-05-02T01:50:47;100374.41;;;20.41;45.00
63399;BME280;49533;-34.520;150.798;2023-05-02T01:53:15;100353.03;;;20.31;44.82
63399;BME280;49533;-34.520;150.798;2023-05-02T01:55:44;100364.16;;;20.41;44.90
63399;BME280;49533;-34.520;150.798;2023-05-02T01:58:13;100380.81;;;20.49;44.68
63399;BME280;49533;-34.520;150.798;2023-05-02T02:00:43;100394.47;;;20.72;44.67
63399;BME280;49533;-34.520;150.798;2023-05-02T02:03:12;100399.59;;;20.73;44.80
63399;BME280;49533;-34.520;150.798;2023-05-02T02:05:41;100371.34;;;20.50;44.43
63399;BME280;49533;-34.520;150.798;2023-05-02T02:08:10;100384.94;;;20.66;44.34
63399;BME280;49533;-34.520;150.798;2023-05-02T02:10:42;100382.19;;;20.66;44.32
63399;BME280;49533;-34.520;150.798;2023-05-02T02:13:19;100396.84;;;20.73;44.54
63399;BME280;49533;-34.520;150.798;2023-05-02T02:15:55;100375.88;;;20.65;44.21
63399;BME280;49533;-34.520;150.798;2023-05-02T02:18:25;100371.91;;;20.62;44.67
63399;BME280;49533;-34.520;150.798;2023-05-02T02:20:54;100297.78;;;20.27;44.36
63399;BME280;49533;-34.520;150.798;2023-05-02T02:23:26;100375.19;;;20.75;43.66
63399;BME280;49533;-34.520;150.798;2023-05-02T02:25:55;100343.44;;;20.55;43.84
63399;BME280;49533;-34.520;150.798;2023-05-02T02:28:23;100370.00;;;20.70;43.54
63399;BME280;49533;-34.520;150.798;2023-05-02T02:30:50;100351.72;;;20.55;43.89
63399;BME280;49533;-34.520;150.798;2023-05-02T02:33:18;100375.09;;;20.68;44.02
63399;BME280;49533;-34.520;150.798;2023-05-02T02:35:52;100371.56;;;20.68;44.07
63399;BME280;49533;-34.520;150.798;2023-05-02T02:38:31;100305.69;;;20.29;44.43
63399;BME280;49533;-34.520;150.798;2023-05-02T02:41:11;100343.50;;;20.62;44.32
63399;BME280;49533;-34.520;150.798;2023-05-02T02:43:59;100353.09;;;20.75;44.19
63399;BME280;49533;-34.520;150.798;2023-05-02T02:46:54;100351.16;;;20.79;43.63
63399;BME280;49533;-34.520;150.798;2023-05-02T02:52:37;100323.84;;;20.67;43.97
63399;BME280;49533;-34.520;150.798;2023-05-02T02:55:11;100329.03;;;20.76;44.41
63399;BME280;49533;-34.520;150.798;2023-05-02T02:58:11;100306.06;;;20.61;44.02
63399;BME280;49533;-34.520;150.798;2023-05-02T03:00:38;100323.91;;;20.74;44.39
63399;BME280;49533;-34.520;150.798;2023-05-02T03:03:07;100327.47;;;20.75;44.19
63399;BME280;49533;-34.520;150.798;2023-05-02T03:05:35;100325.91;;;20.77;44.37
63399;BME280;49533;-34.520;150.798;2023-05-02T03:08:03;100325.88;;;20.74;43.90
63399;BME280;49533;-34.520;150.798;2023-05-02T03:10:31;100303.28;;;20.61;44.01
63399;BME280;49533;-34.520;150.798;2023-05-02T03:12:59;100326.25;;;20.72;43.80
63399;BME280;49533;-34.520;150.798;2023-05-02T03:18:32;100279.00;;;20.40;44.03
63399;BME280;49533;-34.520;150.798;2023-05-02T03:21:00;100232.56;;;20.05;44.16
63399;BME280;49533;-34.520;150.798;2023-05-02T03:23:27;100305.91;;;20.50;44.49
63399;BME280;49533;-34.520;150.798;2023-05-02T03:25:54;100253.66;;;20.27;44.63
63399;BME280;49533;-34.520;150.798;2023-05-02T03:28:21;100245.28;;;20.16;44.32
63399;BME280;49533;-34.520;150.798;2023-05-02T03:30:48;100325.84;;;20.70;44.22
63399;BME280;49533;-34.520;150.798;2023-05-02T03:33:16;100331.34;;;20.70;44.66
63399;BME280;49533;-34.520;150.798;2023-05-02T03:35:44;100328.59;;;20.70;44.74
63399;BME280;49533;-34.520;150.798;2023-05-02T03:38:11;100322.66;;;20.68;44.65
63399;BME280;49533;-34.520;150.798;2023-05-02T03:40:38;100333.69;;;20.68;44.58
63399;BME280;49533;-34.520;150.798;2023-05-02T03:43:05;100317.94;;;20.69;44.92
63399;BME280;49533;-34.520;150.798;2023-05-02T03:45:34;100279.34;;;20.35;44.73
63399;BME280;49533;-34.520;150.798;2023-05-02T03:48:01;100291.78;;;20.55;44.90
63399;BME280;49533;-34.520;150.798;2023-05-02T03:50:28;100248.53;;;20.26;44.91
63399;BME280;49533;-34.520;150.798;2023-05-02T03:52:55;100322.69;;;20.72;44.52
63399;BME280;49533;-34.520;150.798;2023-05-02T03:55:23;100312.44;;;20.72;44.49
63399;BME280;49533;-34.520;150.798;2023-05-02T03:57:50;100321.91;;;20.71;44.74
63399;BME280;49533;-34.520;150.798;2023-05-02T04:00:17;100315.97;;;20.69;44.96
63399;BME280;49533;-34.520;150.798;2023-05-02T04:02:44;100250.50;;;20.25;45.01
63399;BME280;49533;-34.520;150.798;2023-05-02T04:05:12;100225.97;;;20.16;44.58
63399;BME280;49533;-34.520;150.798;2023-05-02T04:07:39;100313.22;;;20.69;44.95
63399;BME280;49533;-34.520;150.798;2023-05-02T04:10:06;100195.00;;;19.93;44.57
63399;BME280;49533;-34.520;150.798;2023-05-02T04:12:41;100317.13;;;20.68;44.80
63399;BME280;49533;-34.520;150.798;2023-05-02T04:15:09;100283.91;;;20.57;45.19
63399;BME280;49533;-34.520;150.798;2023-05-02T04:17:37;100302.13;;;20.66;45.24
63399;BME280;49533;-34.520;150.798;2023-05-02T04:20:05;100309.25;;;20.67;44.99
63399;BME280;49533;-34.520;150.798;2023-05-02T04:22:32;100304.53;;;20.67;44.97
63399;BME280;49533;-34.520;150.798;2023-05-02T04:25:00;100257.75;;;20.40;44.77
63399;BME280;49533;-34.520;150.798;2023-05-02T04:27:27;100307.28;;;20.67;44.88
63399;BME280;49533;-34.520;150.798;2023-05-02T04:29:54;100298.91;;;20.56;44.47
63399;BME280;49533;-34.520;150.798;2023-05-02T04:32:22;100290.53;;;20.53;44.82
63399;BME280;49533;-34.520;150.798;2023-05-02T04:34:50;100252.09;;;20.30;44.82
63399;BME280;49533;-34.520;150.798;2023-05-02T04:37:17;100297.78;;;20.61;44.98
63399;BME280;49533;-34.520;150.798;2023-05-02T04:39:45;100238.25;;;20.23;44.62
63399;BME280;49533;-34.520;150.798;2023-05-02T04:42:12;100263.25;;;20.40;44.55
63399;BME280;49533;-34.520;150.798;2023-05-02T04:44:39;100292.59;;;20.56;44.61
63399;BME280;49533;-34.520;150.798;2023-05-02T04:47:06;100282.22;;;20.46;44.53
63399;BME280;49533;-34.520;150.798;2023-05-02T04:49:34;100297.22;;;20.48;44.64
63399;BME280;49533;-34.520;150.798;2023-05-02T04:52:01;100296.56;;;20.58;44.58
63399;BME280;49533;-34.520;150.798;2023-05-02T04:54:28;100270.72;;;20.40;44.59
63399;BME280;49533;-34.520;150.798;2023-05-02T04:56:56;100331.34;;;20.67;44.61
63399;BME280;49533;-34.520;150.798;2023-05-02T04:59:23;100323.47;;;20.69;44.84
63399;BME280;49533;-34.520;150.798;2023-05-02T05:01:50;100329.78;;;20.69;45.03
63399;BME280;49533;-34.520;150.798;2023-05-02T05:04:17;100265.59;;;20.38;44.63
63399;BME280;49533;-34.520;150.798;2023-05-02T05:06:45;100201.28;;;19.90;44.90
63399;BME280;49533;-34.520;150.798;2023-05-02T05:09:13;100322.66;;;20.68;45.01
63399;BME280;49533;-34.520;150.798;2023-05-02T05:11:41;100315.91;;;20.62;44.91
63399;BME280;49533;-34.520;150.798;2023-05-02T05:14:09;100311.53;;;20.57;45.12
63399;BME280;49533;-34.520;150.798;2023-05-02T05:16:37;100252.06;;;20.26;45.10
63399;BME280;49533;-34.520;150.798;2023-05-02T05:19:04;100285.03;;;20.53;44.77
63399;BME280;49533;-34.520;150.798;2023-05-02T05:21:31;100281.56;;;20.56;45.11
63399;BME280;49533;-34.520;150.798;2023-05-02T05:23:58;100306.16;;;20.75;44.99
63399;BME280;49533;-34.520;150.798;2023-05-02T05:26:26;100305.38;;;20.75;44.80
63399;BME280;49533;-34.520;150.798;2023-05-02T05:28:53;100316.41;;;20.75;44.79
63399;BME280;49533;-34.520;150.798;2023-05-02T05:31:20;100294.66;;;20.66;45.00
63399;BME280;49533;-34.520;150.798;2023-05-02T05:33:49;100314.84;;;20.74;44.87
63399;BME280;49533;-34.520;150.798;2023-05-02T05:36:17;100284.31;;;20.56;44.88
63399;BME280;49533;-34.520;150.798;2023-05-02T05:38:44;100248.59;;;20.33;45.13
63399;BME280;49533;-34.520;150.798;2023-05-02T05:41:12;100292.25;;;20.61;44.75
63399;BME280;49533;-34.520;150.798;2023-05-02T05:43:39;100283.81;;;20.50;44.58
63399;BME280;49533;-34.520;150.798;2023-05-02T05:46:06;100244.63;;;20.30;44.48
63399;BME280;49533;-34.520;150.798;2023-05-02T05:48:33;100318.81;;;20.76;44.30
63399;BME280;49533;-34.520;150.798;2023-05-02T05:51:04;100301.38;;;20.69;44.28
63399;BME280;49533;-34.520;150.798;2023-05-02T05:53:32;100320.81;;;20.79;44.14
63399;BME280;49533;-34.520;150.798;2023-05-02T05:56:08;100312.38;;;20.65;44.02
63399;BME280;49533;-34.520;150.798;2023-05-02T05:58:36;100301.28;;;20.58;44.32
63399;BME280;49533;-34.520;150.798;2023-05-02T06:01:03;100284.25;;;20.52;44.30
63399;BME280;49533;-34.520;150.798;2023-05-02T06:03:30;100321.50;;;20.69;44.11
63399;BME280;49533;-34.520;150.798;2023-05-02T06:05:58;100280.28;;;20.50;44.13
63399;BME280;49533;-34.520;150.798;2023-05-02T06:08:25;100279.75;;;20.37;44.30
63399;BME280;49533;-34.520;150.798;2023-05-02T06:10:52;100294.41;;;20.45;44.05
63399;BME280;49533;-34.520;150.798;2023-05-02T06:13:19;100321.00;;;20.60;44.47
63399;BME280;49533;-34.520;150.798;2023-05-02T06:15:47;100331.00;;;20.72;43.56
63399;BME280;49533;-34.520;150.798;2023-05-02T06:18:14;100307.56;;;20.55;44.20
63399;BME280;49533;-34.520;150.798;2023-05-02T06:20:41;100334.91;;;20.71;44.51
63399;BME280;49533;-34.520;150.798;2023-05-02T06:23:08;100302.75;;;20.48;44.46
63399;BME280;49533;-34.520;150.798;2023-05-02T06:25:37;100297.94;;;20.41;44.62
63399;BME280;49533;-34.520;150.798;2023-05-02T06:28:04;100309.00;;;20.45;44.79
63399;BME280;49533;-34.520;150.798;2023-05-02T06:30:31;100329.34;;;20.67;44.63
63399;BME280;49533;-34.520;150.798;2023-05-02T06:32:58;100333.69;;;20.68;44.79
63399;BME280;49533;-34.520;150.798;2023-05-02T06:35:26;100273.44;;;20.33;44.84
63399;BME280;49533;-34.520;150.798;2023-05-02T06:37:53;100329.72;;;20.66;44.58
63399;BME280;49533;-34.520;150.798;2023-05-02T06:40:21;100310.16;;;20.40;44.62
63399;BME280;49533;-34.520;150.798;2023-05-02T06:42:48;100302.69;;;20.45;44.70
63399;BME280;49533;-34.520;150.798;2023-05-02T06:45:15;100332.81;;;20.57;44.89
63399;BME280;49533;-34.520;150.798;2023-05-02T06:47:43;100315.00;;;20.51;44.98
63399;BME280;49533;-34.520;150.798;2023-05-02T06:50:10;100317.75;;;20.51;45.04
63399;BME280;49533;-34.520;150.798;2023-05-02T06:52:37;100309.34;;;20.40;44.77
63399;BME280;49533;-34.520;150.798;2023-05-02T06:55:05;100346.56;;;20.53;44.65
63399;BME280;49533;-34.520;150.798;2023-05-02T06:57:32;100347.13;;;20.66;44.53
63399;BME280;49533;-34.520;150.798;2023-05-02T06:59:59;100356.53;;;20.65;44.74
63399;BME280;49533;-34.520;150.798;2023-05-02T07:02:26;100343.94;;;20.64;44.76
63399;BME280;49533;-34.520;150.798;2023-05-02T07:04:53;100347.91;;;20.67;44.68
63399;BME280;49533;-34.520;150.798;2023-05-02T07:07:20;100321.59;;;20.42;43.84
63399;BME280;49533;-34.520;150.798;2023-05-02T07:09:48;100284.34;;;20.22;43.95
63399;BME280;49533;-34.520;150.798;2023-05-02T07:12:15;100335.88;;;20.52;43.84
63399;BME280;49533;-34.520;150.798;2023-05-02T07:14:43;100336.22;;;20.47;43.71
63399;BME280;49533;-34.520;150.798;2023-05-02T07:17:12;100336.16;;;20.39;43.52
63399;BME280;49533;-34.520;150.798;2023-05-02T07:19:39;100355.25;;;20.55;43.99
63399;BME280;49533;-34.520;150.798;2023-05-02T07:22:06;100308.38;;;20.22;43.55
63399;BME280;49533;-34.520;150.798;2023-05-02T07:24:33;100356.78;;;20.53;43.73
63399;BME280;49533;-34.520;150.798;2023-05-02T07:27:00;100353.22;;;20.49;43.80
63399;BME280;49533;-34.520;150.798;2023-05-02T07:29:28;100365.16;;;20.56;43.67
63399;BME280;49533;-34.520;150.798;2023-05-02T07:31:55;100370.66;;;20.56;44.18
63399;BME280;49533;-34.520;150.798;2023-05-02T07:34:22;100300.78;;;20.11;43.99
63399;BME280;49533;-34.520;150.798;2023-05-02T07:36:49;100363.41;;;20.45;44.11
63399;BME280;49533;-34.520;150.798;2023-05-02T07:39:17;100318.97;;;20.16;44.17
63399;BME280;49533;-34.520;150.798;2023-05-02T07:41:45;100321.72;;;20.16;43.96
63399;BME280;49533;-34.520;150.798;2023-05-02T07:44:12;100385.16;;;20.50;42.13
63399;BME280;49533;-34.520;150.798;2023-05-02T07:46:39;100389.09;;;20.49;42.64
63399;BME280;49533;-34.520;150.798;2023-05-02T07:49:07;100390.25;;;20.48;42.87
63399;BME280;49533;-34.520;150.798;2023-05-02T07:51:34;100402.47;;;20.47;42.76
63399;BME280;49533;-34.520;150.798;2023-05-02T07:54:01;100406.78;;;20.48;42.67
63399;BME280;49533;-34.520;150.798;2023-05-02T07:56:29;100414.69;;;20.46;42.76
63399;BME280;49533;-34.520;150.798;2023-05-02T07:58:56;100431.59;;;20.44;42.73
63399;BME280;49533;-34.520;150.798;2023-05-02T08:01:23;100356.81;;;19.85;42.36
63399;BME280;49533;-34.520;150.798;2023-05-02T08:03:50;100417.25;;;20.31;43.26
63399;BME280;49533;-34.520;150.798;2023-05-02T08:06:18;100380.34;;;20.09;43.27
63399;BME280;49533;-34.520;150.798;2023-05-02T08:08:45;100428.00;;;20.40;43.05
63399;BME280;49533;-34.520;150.798;2023-05-02T08:11:12;100445.38;;;20.40;43.35
63399;BME280;49533;-34.520;150.798;2023-05-02T08:13:39;100430.22;;;20.27;43.68
63399;BME280;49533;-34.520;150.798;2023-05-02T08:16:07;100396.84;;;20.06;43.74
63399;BME280;49533;-34.520;150.798;2023-05-02T08:18:34;100429.38;;;20.23;43.83
63399;BME280;49533;-34.520;150.798;2023-05-02T08:21:01;100439.34;;;20.31;43.84
63399;BME280;49533;-34.520;150.798;2023-05-02T08:23:28;100408.66;;;20.06;43.66
63399;BME280;49533;-34.520;150.798;2023-05-02T08:25:55;100428.59;;;20.23;43.64
63399;BME280;49533;-34.520;150.798;2023-05-02T08:28:22;100430.88;;;20.17;43.89
63399;BME280;49533;-34.520;150.798;2023-05-02T08:30:49;100450.81;;;20.33;43.88
63399;BME280;49533;-34.520;150.798;2023-05-02T08:33:16;100389.53;;;19.87;43.96
63399;BME280;49533;-34.520;150.798;2023-05-02T08:35:44;100480.59;;;20.51;43.51
63399;BME280;49533;-34.520;150.798;2023-05-02T08:38:11;100465.84;;;20.39;43.56
63399;BME280;49533;-34.520;150.798;2023-05-02T08:40:39;100484.50;;;20.50;43.51
63399;BME280;49533;-34.520;150.798;2023-05-02T08:43:06;100488.88;;;20.51;43.33
63399;BME280;49533;-34.520;150.798;2023-05-02T08:45:38;100460.66;;;20.34;43.53
63399;BME280;49533;-34.520;150.798;2023-05-02T08:48:07;100493.56;;;20.50;43.37
63399;BME280;49533;-34.520;150.798;2023-05-02T08:50:41;100492.78;;;20.50;43.53
63399;BME280;49533;-34.520;150.798;2023-05-02T08:53:10;100455.47;;;20.29;43.50
63399;BME280;49533;-34.520;150.798;2023-05-02T08:55:40;100456.59;;;20.25;43.62
63399;BME280;49533;-34.520;150.798;2023-05-02T08:58:09;100498.72;;;20.52;43.45
63399;BME280;49533;-34.520;150.798;2023-05-02T09:00:39;100489.66;;;20.51;43.66
63399;BME280;49533;-34.520;150.798;2023-05-02T09:06:05;100518.03;;;20.52;43.87
63399;BME280;49533;-34.520;150.798;2023-05-02T09:08:33;100532.19;;;20.50;43.23
63399;BME280;49533;-34.520;150.798;2023-05-02T09:11:02;100482.59;;;20.24;43.39
63399;BME280;49533;-34.520;150.798;2023-05-02T09:13:35;100518.03;;;20.52;43.57
63399;BME280;49533;-34.520;150.798;2023-05-02T09:16:08;100492.09;;;20.26;43.25
63399;BME280;49533;-34.520;150.798;2023-05-02T09:18:38;100512.31;;;20.37;43.76
63399;BME280;49533;-34.520;150.798;2023-05-02T09:21:10;100548.41;;;20.52;43.73
63399;BME280;49533;-34.520;150.798;2023-05-02T09:23:44;100538.16;;;20.52;43.45
63399;BME280;49533;-34.520;150.798;2023-05-02T09:26:16;100430.38;;;19.81;43.06
63399;BME280;49533;-34.520;150.798;2023-05-02T09:28:50;100508.22;;;20.24;43.56
63399;BME280;49533;-34.520;150.798;2023-05-02T09:31:20;100544.84;;;20.51;43.39
63399;BME280;49533;-34.520;150.798;2023-05-02T09:33:48;100497.03;;;20.13;42.95
63399;BME280;49533;-34.520;150.798;2023-05-02T09:36:17;100535.34;;;20.49;43.66
63399;BME280;49533;-34.520;150.798;2023-05-02T09:38:46;100537.31;;;20.48;43.54
63399;BME280;49533;-34.520;150.798;2023-05-02T09:41:14;100534.13;;;20.46;42.93
63399;BME280;49533;-34.520;150.798;2023-05-02T09:43:54;100480.44;;;20.10;42.89
63399;BME280;49533;-34.520;150.798;2023-05-02T09:46:25;100429.56;;;19.77;43.05
63399;BME280;49533;-34.520;150.798;2023-05-02T09:49:07;100530.50;;;20.38;42.88
63399;BME280;49533;-34.520;150.798;2023-05-02T09:51:36;100529.69;;;20.38;43.20
63399;BME280;49533;-34.520;150.798;2023-05-02T09:54:03;100532.97;;;20.47;43.39
63399;BME280;49533;-34.520;150.798;2023-05-02T09:56:31;100510.19;;;20.24;42.68
63399;BME280;49533;-34.520;150.798;2023-05-02T09:59:13;100518.50;;;20.27;43.10
63399;BME280;49533;-34.520;150.798;2023-05-02T10:01:41;100540.03;;;20.45;43.23
63399;BME280;49533;-34.520;150.798;2023-05-02T10:04:11;100520.84;;;20.25;43.25
63399;BME280;49533;-34.520;150.798;2023-05-02T10:06:44;100543.16;;;20.43;42.98
63399;BME280;49533;-34.520;150.798;2023-05-02T10:09:13;100537.59;;;20.39;43.01
63399;BME280;49533;-34.520;150.798;2023-05-02T10:11:43;100511.72;;;20.21;43.10
63399;BME280;49533;-34.520;150.798;2023-05-02T10:14:11;100500.06;;;20.05;43.02
63399;BME280;49533;-34.520;150.798;2023-05-02T10:16:51;100471.09;;;19.91;43.52
63399;BME280;49533;-34.520;150.798;2023-05-02T10:19:26;100488.22;;;20.04;43.33
63399;BME280;49533;-34.520;150.798;2023-05-02T10:21:54;100538.00;;;20.41;43.35
63399;BME280;49533;-34.520;150.798;2023-05-02T10:24:22;100528.69;;;20.23;42.25
63399;BME280;49533;-34.520;150.798;2023-05-02T10:26:51;100525.56;;;20.25;42.35
63399;BME280;49533;-34.520;150.798;2023-05-02T10:29:19;100537.47;;;20.32;41.65
63399;BME280;49533;-34.520;150.798;2023-05-02T10:31:46;100537.88;;;20.31;42.16
63399;BME280;49533;-34.520;150.798;2023-05-02T10:34:15;100439.53;;;19.62;42.30
63399;BME280;49533;-34.520;150.798;2023-05-02T10:36:45;100515.22;;;20.18;42.00
63399;BME280;49533;-34.520;150.798;2023-05-02T10:39:12;100545.28;;;20.27;41.77
63399;BME280;49533;-34.520;150.798;2023-05-02T10:41:41;100537.41;;;20.25;41.95
63399;BME280;49533;-34.520;150.798;2023-05-02T10:44:10;100497.56;;;19.96;41.65
63399;BME280;49533;-34.520;150.798;2023-05-02T10:46:38;100541.19;;;20.17;41.88
63399;BME280;49533;-34.520;150.798;2023-05-02T10:49:08;100517.72;;;20.00;41.89
63399;BME280;49533;-34.520;150.798;2023-05-02T10:51:38;100525.22;;;20.00;41.69
63399;BME280;49533;-34.520;150.798;2023-05-02T10:54:19;100553.41;;;20.16;41.79
63399;BME280;49533;-34.520;150.798;2023-05-02T10:57:02;100573.47;;;20.13;42.32
63399;BME280;49533;-34.520;150.798;2023-05-02T10:59:39;100575.06;;;20.14;41.68
63399;BME280;49533;-34.520;150.798;2023-05-02T11:05:06;100581.69;;;20.09;42.49
63399;BME280;49533;-34.520;150.798;2023-05-02T11:07:35;100540.97;;;19.76;42.08
63399;BME280;49533;-34.520;150.798;2023-05-02T11:10:24;100590.34;;;20.08;42.34
63399;BME280;49533;-34.520;150.798;2023-05-02T11:12:55;100578.75;;;19.98;41.87
63399;BME280;49533;-34.520;150.798;2023-05-02T11:15:53;100571.97;;;19.92;42.25
63399;BME280;49533;-34.520;150.798;2023-05-02T11:18:21;100504.91;;;19.39;41.77
63399;BME280;49533;-34.520;150.798;2023-05-02T11:20:48;100563.03;;;19.76;41.74
63399;BME280;49533;-34.520;150.798;2023-05-02T11:23:20;100543.47;;;19.62;42.04
63399;BME280;49533;-34.520;150.798;2023-05-02T11:25:49;100545.50;;;19.65;42.03
63399;BME280;49533;-34.520;150.798;2023-05-02T11:28:39;100582.88;;;19.85;42.37
63399;BME280;49533;-34.520;150.798;2023-05-02T11:34:09;100598.75;;;19.92;41.76
63399;BME280;49533;-34.520;150.798;2023-05-02T11:36:36;100597.16;;;19.91;42.09
63399;BME280;49533;-34.520;150.798;2023-05-02T11:39:16;100541.34;;;19.51;42.05
63399;BME280;49533;-34.520;150.798;2023-05-02T11:41:44;100538.50;;;19.48;42.30
63399;BME280;49533;-34.520;150.798;2023-05-02T11:44:14;100557.56;;;19.57;42.21
63399;BME280;49533;-34.520;150.798;2023-05-02T11:46:42;100582.84;;;19.62;42.14
63399;BME280;49533;-34.520;150.798;2023-05-02T11:49:11;100617.53;;;19.86;42.42
63399;BME280;49533;-34.520;150.798;2023-05-02T11:51:38;100600.38;;;19.73;42.62
63399;BME280;49533;-34.520;150.798;2023-05-02T11:54:06;100593.09;;;19.62;42.94
63399;BME280;49533;-34.520;150.798;2023-05-02T11:56:33;100619.91;;;19.84;42.84
63399;BME280;49533;-34.520;150.798;2023-05-02T11:59:02;100600.03;;;19.75;42.63
63399;BME280;49533;-34.520;150.798;2023-05-02T12:01:30;100608.47;;;19.86;42.84
63399;BME280;49533;-34.520;150.798;2023-05-02T12:04:04;100597.41;;;19.82;43.05
63399;BME280;49533;-34.520;150.798;2023-05-02T12:06:33;100579.72;;;19.64;43.19
63399;BME280;49533;-34.520;150.798;2023-05-02T12:09:14;100581.53;;;19.75;43.04
63399;BME280;49533;-34.520;150.798;2023-05-02T12:11:42;100528.06;;;19.38;43.18
63399;BME280;49533;-34.520;150.798;2023-05-02T12:14:10;100580.31;;;19.73;43.48
63399;BME280;49533;-34.520;150.798;2023-05-02T12:16:40;100562.38;;;19.63;43.38
63399;BME280;49533;-34.520;150.798;2023-05-02T12:19:07;100562.50;;;19.67;43.31
63399;BME280;49533;-34.520;150.798;2023-05-02T12:21:35;100577.09;;;19.71;43.27
63399;BME280;49533;-34.520;150.798;2023-05-02T12:24:02;100548.59;;;19.63;43.04
63399;BME280;49533;-34.520;150.798;2023-05-02T12:26:31;100533.19;;;19.59;43.34
63399;BME280;49533;-34.520;150.798;2023-05-02T12:28:58;100540.28;;;19.60;43.50
63399;BME280;49533;-34.520;150.798;2023-05-02T12:31:27;100502.75;;;19.28;43.66
63399;BME280;49533;-34.520;150.798;2023-05-02T12:33:56;100542.47;;;19.50;43.76
63399;BME280;49533;-34.520;150.798;2023-05-02T12:36:26;100557.25;;;19.62;43.60
63399;BME280;49533;-34.520;150.798;2023-05-02T12:38:56;100565.09;;;19.60;43.72
63399;BME280;49533;-34.520;150.798;2023-05-02T12:41:34;100518.06;;;19.26;43.89
63399;BME280;49533;-34.520;150.798;2023-05-02T12:44:02;100555.41;;;19.46;43.81
63399;BME280;49533;-34.520;150.798;2023-05-02T12:46:31;100541.38;;;19.32;43.78
63399;BME280;49533;-34.520;150.798;2023-05-02T12:49:03;100564.41;;;19.43;43.86
63399;BME280;49533;-34.520;150.798;2023-05-02T12:51:33;100566.91;;;19.52;43.89
63399;BME280;49533;-34.520;150.798;2023-05-02T12:54:02;100558.59;;;19.48;44.00
63399;BME280;49533;-34.520;150.798;2023-05-02T12:56:37;100547.94;;;19.47;44.09